Denver, Colorado
Traffic Map
Current Weather Conditions
Denver, Colorado
Broken Clouds
Broken Clouds
-7°
Feels Like: -13°
Wind Chill: -13° Ceiling: 9000
Heat Index: -7° Visibility: 10mi
Dew Point: -10° Wind: 10mph
Humidity: 77% Direction: 150° (SSE)
Pressure: 30.39in Gusts: 0mph
Raw Report DataKBKF 080658Z 15009KT 10SM FEW040 BKN090 M07/M10 A3039 RMK AO2A SLP327 T10681103 400621079
Traffic Incident Summary
Active as of:
Severity:
Category:
InformationThere was an issue retrieving the traffic information for this location. Please try a different location or try again shortly.
Advertisements
Track Severe Weather on mobile